createdAt,value
2022-08-10T00:04:56.764Z,14.62
2022-08-10T00:09:59.869Z,14.29
2022-08-10T00:15:05.738Z,14.16
2022-08-10T00:20:10.447Z,14.11
2022-08-10T00:25:13.394Z,13.22
2022-08-10T00:30:17.895Z,13.17
2022-08-10T00:35:20.926Z,12.66
2022-08-10T00:40:37.153Z,12.41
2022-08-10T00:45:43.000Z,12.13
2022-08-10T00:50:49.497Z,12.34
2022-08-10T00:56:35.060Z,11.91
2022-08-10T01:02:07.729Z,11.77
2022-08-10T01:07:02.016Z,12.07
2022-08-10T01:12:40.393Z,12.16
2022-08-10T01:17:55.242Z,12.30
2022-08-10T01:23:32.681Z,12.59
2022-08-10T01:28:46.653Z,12.90
2022-08-10T01:33:58.239Z,12.85
2022-08-10T01:39:04.057Z,12.10
2022-08-10T01:44:11.494Z,12.01
2022-08-10T01:49:18.325Z,11.93
2022-08-10T01:54:24.985Z,12.12
2022-08-10T01:59:33.052Z,11.31
2022-08-10T02:04:40.223Z,11.49
2022-08-10T02:09:47.751Z,11.53
2022-08-10T02:14:53.625Z,11.25
2022-08-10T02:20:03.948Z,11.52
2022-08-10T02:25:09.317Z,13.05
2022-08-10T02:30:33.654Z,11.94
2022-08-10T02:35:55.306Z,14.49
2022-08-10T02:45:02.630Z,14.64
2022-08-10T02:46:39.813Z,14.46
2022-08-10T02:52:06.890Z,13.63
2022-08-10T02:57:16.852Z,13.59
2022-08-10T03:02:27.195Z,13.15
2022-08-10T03:07:42.926Z,12.87
2022-08-10T03:12:51.475Z,12.93
2022-08-10T03:17:58.656Z,12.97
2022-08-10T03:23:05.860Z,12.66
2022-08-10T03:28:10.019Z,12.49
2022-08-10T03:33:16.247Z,12.66
2022-08-10T03:38:20.733Z,12.81
2022-08-10T03:43:26.137Z,12.31
2022-08-10T03:48:45.074Z,12.20
2022-08-10T03:54:03.518Z,11.99
2022-08-10T03:59:12.441Z,11.62
2022-08-10T04:04:20.867Z,11.49
2022-08-10T04:09:53.503Z,11.68
2022-08-10T04:14:53.846Z,11.40
2022-08-10T04:19:59.792Z,11.39
2022-08-10T04:25:06.934Z,11.36
2022-08-10T04:30:10.921Z,11.16
2022-08-10T04:35:16.077Z,10.70
2022-08-10T04:40:29.255Z,10.76
2022-08-10T04:45:49.751Z,11.39
2022-08-10T04:50:55.667Z,11.03
2022-08-10T04:56:04.501Z,10.60
2022-08-10T05:01:07.650Z,10.24
2022-08-10T05:06:10.949Z,10.13
2022-08-10T05:11:24.029Z,10.11
2022-08-10T05:16:32.296Z,10.31
2022-08-10T05:22:03.807Z,9.82
2022-08-10T05:27:09.692Z,9.48
2022-08-10T05:32:14.074Z,9.15
2022-08-10T05:38:09.004Z,8.31
2022-08-10T05:42:42.798Z,7.48
2022-08-10T05:48:57.175Z,6.92
2022-08-10T05:53:23.155Z,6.28
2022-08-10T05:58:33.943Z,6.08
2022-08-10T06:03:43.861Z,5.99
2022-08-10T06:08:48.285Z,5.85
2022-08-10T06:14:16.692Z,5.70
2022-08-10T06:19:22.996Z,4.98
2022-08-10T06:24:29.224Z,4.13
2022-08-10T06:29:37.893Z,3.70
2022-08-10T06:34:45.251Z,4.51
2022-08-10T06:39:49.239Z,3.45
2022-08-10T06:44:58.381Z,3.05
2022-08-10T06:50:09.207Z,3.30
2022-08-10T06:55:16.928Z,3.06
2022-08-10T07:00:33.386Z,2.18
2022-08-10T07:05:41.532Z,2.05
2022-08-10T07:10:48.182Z,2.80
2022-08-10T07:15:58.238Z,1.58
2022-08-10T07:21:05.860Z,0.63
2022-08-10T07:26:10.254Z,0.00
2022-08-10T07:31:55.099Z,-0.20
2022-08-10T07:36:43.395Z,-1.35
2022-08-10T07:41:49.817Z,-1.10
2022-08-10T07:46:57.013Z,-1.92
2022-08-10T07:52:00.785Z,-2.25
2022-08-10T07:57:07.462Z,-2.44
2022-08-10T08:02:20.824Z,-3.09
2022-08-10T08:07:24.138Z,-2.96
2022-08-10T08:12:28.703Z,-3.09
2022-08-10T08:17:36.764Z,-4.06
2022-08-10T08:24:05.336Z,-4.48
2022-08-10T08:28:06.076Z,-4.66
2022-08-10T08:33:19.958Z,118.22
2022-08-10T08:38:37.300Z,117.25
2022-08-10T08:43:54.419Z,116.18
2022-08-10T08:50:05.230Z,116.63
2022-08-10T08:54:53.578Z,116.97
2022-08-10T09:00:04.780Z,117.50
2022-08-10T09:05:58.589Z,117.91
2022-08-10T09:11:01.818Z,117.87
2022-08-10T09:16:23.276Z,117.71
2022-08-10T09:21:43.074Z,117.75
2022-08-10T09:27:07.788Z,118.34
2022-08-10T09:36:13.909Z,117.85
2022-08-10T09:38:01.983Z,117.92
2022-08-10T09:43:25.824Z,118.01
2022-08-10T09:48:38.849Z,116.82
2022-08-10T09:53:50.573Z,116.47
2022-08-10T09:59:59.372Z,116.40
2022-08-10T10:04:46.849Z,115.24
2022-08-10T10:09:58.353Z,111.52
2022-08-10T10:15:28.026Z,112.90
2022-08-10T10:20:39.685Z,112.77
2022-08-10T10:25:57.714Z,114.78
2022-08-10T10:31:16.585Z,112.99
2022-08-10T10:36:22.460Z,111.35
2022-08-10T10:41:57.327Z,110.90
2022-08-10T10:47:30.187Z,109.95
2022-08-10T10:52:43.872Z,109.75
2022-08-10T10:58:01.167Z,111.53
2022-08-10T11:03:24.182Z,110.50
2022-08-10T11:08:34.297Z,110.57
2022-08-10T11:14:25.089Z,109.91
2022-08-10T11:19:18.593Z,105.03
2022-08-10T11:24:47.893Z,100.45
2022-08-10T11:30:00.980Z,102.47
2022-08-10T11:35:12.986Z,105.13
2022-08-10T11:40:21.024Z,106.37
2022-08-10T11:45:29.661Z,108.39
2022-08-10T11:50:37.139Z,107.24
2022-08-10T11:55:44.885Z,108.11
2022-08-10T12:00:50.142Z,108.20
2022-08-10T12:05:56.469Z,107.30
2022-08-10T12:11:00.110Z,106.32
2022-08-10T12:16:08.079Z,104.86
2022-08-10T12:21:21.725Z,100.45
2022-08-10T12:26:32.536Z,97.68
2022-08-10T12:31:43.437Z,93.33
2022-08-10T12:36:53.965Z,94.88
2022-08-10T12:42:00.750Z,97.56
2022-08-10T12:47:20.930Z,98.25
2022-08-10T12:52:29.351Z,94.80
2022-08-10T12:57:36.592Z,97.30
2022-08-10T13:02:48.544Z,96.53
2022-08-10T13:08:26.880Z,98.19
2022-08-10T13:13:35.504Z,98.33
2022-08-10T13:18:44.035Z,100.54
2022-08-10T13:24:03.333Z,99.51
2022-08-10T13:29:15.434Z,93.19
2022-08-10T13:34:42.221Z,92.48
2022-08-10T13:39:58.215Z,86.65
2022-08-10T13:45:09.692Z,81.67
2022-08-10T13:50:20.267Z,79.30
2022-08-10T13:55:26.323Z,84.50
2022-08-10T14:00:50.267Z,94.54
2022-08-10T14:05:57.629Z,97.52
2022-08-10T14:11:10.340Z,99.56
2022-08-10T14:16:17.201Z,98.56
2022-08-10T14:21:22.324Z,96.26
2022-08-10T14:26:28.603Z,97.98
2022-08-10T14:31:34.495Z,98.06
2022-08-10T14:36:44.225Z,97.56
2022-08-10T14:42:01.637Z,95.92
2022-08-10T14:47:52.690Z,94.08
2022-08-10T14:52:44.325Z,94.02
2022-08-10T14:58:16.981Z,96.46
2022-08-10T15:04:00.905Z,97.50
2022-08-10T15:08:46.918Z,95.07
2022-08-10T15:18:58.516Z,92.36
2022-08-10T15:24:09.999Z,92.33
2022-08-10T15:29:23.406Z,92.61
2022-08-10T15:34:48.291Z,95.23
2022-08-10T15:40:25.307Z,97.53
2022-08-10T15:45:26.966Z,99.48
2022-08-10T15:50:40.161Z,98.12
2022-08-10T15:55:51.693Z,100.21
2022-08-10T16:00:59.486Z,103.35
2022-08-10T16:06:03.551Z,104.47
2022-08-10T16:11:11.996Z,104.86
2022-08-10T16:16:17.649Z,105.37
2022-08-10T16:21:24.616Z,104.81
2022-08-10T16:26:32.317Z,104.80
2022-08-10T16:31:37.070Z,104.26
2022-08-10T16:36:44.977Z,103.92
2022-08-10T16:42:05.211Z,104.49
2022-08-10T16:47:10.945Z,105.71
2022-08-10T16:52:15.272Z,106.27
2022-08-10T16:57:21.048Z,107.53
2022-08-10T17:02:26.098Z,107.70
2022-08-10T17:07:31.220Z,107.99
2022-08-10T17:12:39.332Z,108.15
2022-08-10T17:17:46.014Z,108.83
2022-08-10T17:22:54.750Z,110.53
2022-08-10T17:28:04.909Z,112.25
2022-08-10T17:33:30.537Z,114.02
2022-08-10T17:38:37.280Z,115.02
2022-08-10T17:44:02.140Z,113.48
2022-08-10T17:49:08.896Z,114.32
2022-08-10T17:54:24.739Z,114.35
2022-08-10T17:59:31.948Z,115.23
2022-08-10T18:04:41.812Z,113.72
2022-08-10T18:09:50.759Z,116.94
2022-08-10T18:14:58.114Z,116.87
2022-08-10T18:20:04.390Z,118.74
2022-08-10T18:25:16.215Z,-3.89
2022-08-10T18:30:21.728Z,118.08
2022-08-10T18:35:34.949Z,-3.18
2022-08-10T18:40:43.981Z,-3.25
2022-08-10T18:45:48.884Z,-4.82
2022-08-10T18:50:53.772Z,117.84
2022-08-10T18:56:10.612Z,-3.94
2022-08-10T19:01:28.987Z,-2.55
2022-08-10T19:06:57.706Z,-2.23
2022-08-10T19:12:30.832Z,-2.77
2022-08-10T19:18:03.688Z,-2.52
2022-08-10T19:23:33.484Z,-3.27
2022-08-10T19:28:47.554Z,-1.72
2022-08-10T19:34:11.103Z,-1.27
2022-08-10T19:39:26.451Z,-1.02
2022-08-10T19:44:43.002Z,-1.06
2022-08-10T19:49:55.769Z,-0.37
2022-08-10T19:55:15.209Z,1.91
2022-08-10T20:00:24.262Z,4.11
2022-08-10T20:05:36.808Z,5.64
2022-08-10T20:10:48.000Z,6.62
2022-08-10T20:15:58.275Z,0.38
2022-08-10T20:21:12.443Z,-0.51
2022-08-10T20:26:20.895Z,-1.46
2022-08-10T20:31:30.469Z,-2.67
2022-08-10T20:36:39.721Z,-1.45
2022-08-10T20:41:55.718Z,2.98
2022-08-10T20:47:05.740Z,1.82
2022-08-10T20:52:11.396Z,3.80
2022-08-10T20:57:55.281Z,4.79
2022-08-10T21:03:31.271Z,4.96
2022-08-10T21:08:50.435Z,6.35
2022-08-10T21:14:19.490Z,7.11
2022-08-10T21:20:01.075Z,8.34
2022-08-10T21:25:15.643Z,9.65
2022-08-10T21:30:22.364Z,10.18
2022-08-10T21:41:57.268Z,11.04
2022-08-10T21:47:38.031Z,12.26
2022-08-10T21:53:17.826Z,11.48
2022-08-10T21:58:48.785Z,12.05
2022-08-10T22:04:10.501Z,12.31
2022-08-10T22:09:42.743Z,13.16
2022-08-10T22:15:09.499Z,12.74
2022-08-10T22:20:41.528Z,11.97
2022-08-10T22:26:12.962Z,11.65
2022-08-10T22:31:28.224Z,10.88
2022-08-10T22:31:52.891Z,12.67
2022-08-10T22:37:27.471Z,12.48
2022-08-10T22:42:59.170Z,12.38
2022-08-10T22:48:33.283Z,11.80
2022-08-10T22:54:06.324Z,12.14
2022-08-10T22:59:10.030Z,11.81
2022-08-10T23:04:21.043Z,11.73
2022-08-10T23:09:27.160Z,13.03
2022-08-10T23:14:36.681Z,13.01
2022-08-10T23:19:44.969Z,14.36
2022-08-10T23:24:53.274Z,13.71
2022-08-10T23:30:03.636Z,14.29
2022-08-10T23:36:30.966Z,14.55
2022-08-10T23:40:46.269Z,14.65
2022-08-10T23:45:54.531Z,15.03
2022-08-10T23:51:02.710Z,15.37
2022-08-10T23:56:10.938Z,14.91
